sensor_id;sensor_type;location;lat;lon;timestamp;P1;durP1;ratioP1;P2;durP2;ratioP2
27818;SDS011;15192;44.854;10.046;2023-05-23T00:01:35;18.98;;;13.60;;
27818;SDS011;15192;44.854;10.046;2023-05-23T00:04:04;26.02;;;14.43;;
27818;SDS011;15192;44.854;10.046;2023-05-23T00:06:34;18.92;;;14.60;;
27818;SDS011;15192;44.854;10.046;2023-05-23T00:09:04;20.08;;;14.15;;
27818;SDS011;15192;44.854;10.046;2023-05-23T00:11:33;20.92;;;13.18;;
27818;SDS011;15192;44.854;10.046;2023-05-23T00:14:03;19.32;;;14.65;;
27818;SDS011;15192;44.854;10.046;2023-05-23T00:16:33;18.50;;;13.62;;
27818;SDS011;15192;44.854;10.046;2023-05-23T00:19:04;20.15;;;13.93;;
27818;SDS011;15192;44.854;10.046;2023-05-23T00:21:34;18.77;;;13.70;;
27818;SDS011;15192;44.854;10.046;2023-05-23T00:24:03;18.23;;;13.30;;
27818;SDS011;15192;44.854;10.046;2023-05-23T00:26:32;20.52;;;14.53;;
27818;SDS011;15192;44.854;10.046;2023-05-23T00:29:00;18.62;;;12.90;;
27818;SDS011;15192;44.854;10.046;2023-05-23T00:31:30;18.90;;;13.45;;
27818;SDS011;15192;44.854;10.046;2023-05-23T00:33:59;20.17;;;13.68;;
27818;SDS011;15192;44.854;10.046;2023-05-23T00:36:28;21.37;;;14.00;;
27818;SDS011;15192;44.854;10.046;2023-05-23T00:38:56;19.52;;;13.40;;
27818;SDS011;15192;44.854;10.046;2023-05-23T00:41:25;17.05;;;12.85;;
27818;SDS011;15192;44.854;10.046;2023-05-23T00:43:57;19.65;;;14.20;;
27818;SDS011;15192;44.854;10.046;2023-05-23T00:46:26;16.67;;;13.08;;
27818;SDS011;15192;44.854;10.046;2023-05-23T00:48:56;20.50;;;14.00;;
27818;SDS011;15192;44.854;10.046;2023-05-23T00:51:25;20.08;;;13.15;;
27818;SDS011;15192;44.854;10.046;2023-05-23T00:53:54;23.02;;;13.88;;
27818;SDS011;15192;44.854;10.046;2023-05-23T00:56:25;25.12;;;14.78;;
27818;SDS011;15192;44.854;10.046;2023-05-23T00:58:54;21.97;;;13.93;;
27818;SDS011;15192;44.854;10.046;2023-05-23T01:01:23;22.58;;;14.35;;
27818;SDS011;15192;44.854;10.046;2023-05-23T01:03:53;26.62;;;14.15;;
27818;SDS011;15192;44.854;10.046;2023-05-23T01:06:22;27.27;;;14.47;;
27818;SDS011;15192;44.854;10.046;2023-05-23T01:08:51;21.75;;;14.55;;
27818;SDS011;15192;44.854;10.046;2023-05-23T01:11:26;21.10;;;15.10;;
27818;SDS011;15192;44.854;10.046;2023-05-23T01:13:58;20.95;;;15.25;;
27818;SDS011;15192;44.854;10.046;2023-05-23T01:16:38;26.82;;;15.58;;
27818;SDS011;15192;44.854;10.046;2023-05-23T01:24:36;24.80;;;14.25;;
27818;SDS011;15192;44.854;10.046;2023-05-23T01:27:20;19.40;;;12.50;;
27818;SDS011;15192;44.854;10.046;2023-05-23T01:29:56;21.68;;;13.60;;
27818;SDS011;15192;44.854;10.046;2023-05-23T01:32:28;17.00;;;14.07;;
27818;SDS011;15192;44.854;10.046;2023-05-23T01:34:59;18.82;;;14.73;;
27818;SDS011;15192;44.854;10.046;2023-05-23T01:37:28;18.75;;;14.25;;
27818;SDS011;15192;44.854;10.046;2023-05-23T01:39:57;21.05;;;14.93;;
27818;SDS011;15192;44.854;10.046;2023-05-23T01:42:26;20.75;;;13.75;;
27818;SDS011;15192;44.854;10.046;2023-05-23T01:44:55;19.27;;;14.33;;
27818;SDS011;15192;44.854;10.046;2023-05-23T01:47:25;20.82;;;14.60;;
27818;SDS011;15192;44.854;10.046;2023-05-23T01:49:54;22.67;;;15.45;;
27818;SDS011;15192;44.854;10.046;2023-05-23T01:52:25;23.65;;;15.50;;
27818;SDS011;15192;44.854;10.046;2023-05-23T01:54:54;22.27;;;17.20;;
27818;SDS011;15192;44.854;10.046;2023-05-23T01:57:26;22.23;;;15.27;;
27818;SDS011;15192;44.854;10.046;2023-05-23T01:59:56;27.40;;;17.50;;
27818;SDS011;15192;44.854;10.046;2023-05-23T02:02:26;26.57;;;17.30;;
27818;SDS011;15192;44.854;10.046;2023-05-23T02:04:56;22.00;;;16.87;;
27818;SDS011;15192;44.854;10.046;2023-05-23T02:07:24;20.48;;;15.45;;
27818;SDS011;15192;44.854;10.046;2023-05-23T02:09:54;22.67;;;16.48;;
27818;SDS011;15192;44.854;10.046;2023-05-23T02:12:23;31.50;;;16.50;;
27818;SDS011;15192;44.854;10.046;2023-05-23T02:14:52;21.23;;;16.25;;
27818;SDS011;15192;44.854;10.046;2023-05-23T02:17:21;27.82;;;17.45;;
27818;SDS011;15192;44.854;10.046;2023-05-23T02:19:50;27.85;;;16.37;;
27818;SDS011;15192;44.854;10.046;2023-05-23T02:22:22;27.22;;;17.07;;
27818;SDS011;15192;44.854;10.046;2023-05-23T02:27:19;22.52;;;15.85;;
27818;SDS011;15192;44.854;10.046;2023-05-23T02:29:48;22.70;;;15.65;;
27818;SDS011;15192;44.854;10.046;2023-05-23T02:32:17;26.17;;;17.27;;
27818;SDS011;15192;44.854;10.046;2023-05-23T02:34:46;22.80;;;16.93;;
27818;SDS011;15192;44.854;10.046;2023-05-23T02:37:16;31.40;;;17.73;;
27818;SDS011;15192;44.854;10.046;2023-05-23T02:39:45;24.40;;;17.00;;
27818;SDS011;15192;44.854;10.046;2023-05-23T02:42:14;23.10;;;16.37;;
27818;SDS011;15192;44.854;10.046;2023-05-23T02:44:44;26.30;;;17.32;;
27818;SDS011;15192;44.854;10.046;2023-05-23T02:47:13;23.75;;;15.98;;
27818;SDS011;15192;44.854;10.046;2023-05-23T02:49:41;28.23;;;18.12;;
27818;SDS011;15192;44.854;10.046;2023-05-23T02:52:11;24.10;;;16.30;;
27818;SDS011;15192;44.854;10.046;2023-05-23T02:54:40;24.30;;;16.30;;
27818;SDS011;15192;44.854;10.046;2023-05-23T02:57:09;24.32;;;17.48;;
27818;SDS011;15192;44.854;10.046;2023-05-23T02:59:39;23.87;;;16.00;;
27818;SDS011;15192;44.854;10.046;2023-05-23T03:02:09;24.43;;;17.98;;
27818;SDS011;15192;44.854;10.046;2023-05-23T03:04:38;24.23;;;17.32;;
27818;SDS011;15192;44.854;10.046;2023-05-23T03:07:07;21.95;;;16.82;;
27818;SDS011;15192;44.854;10.046;2023-05-23T03:09:37;21.33;;;16.65;;
27818;SDS011;15192;44.854;10.046;2023-05-23T03:12:06;24.37;;;15.50;;
27818;SDS011;15192;44.854;10.046;2023-05-23T03:14:35;23.90;;;16.25;;
27818;SDS011;15192;44.854;10.046;2023-05-23T03:17:04;26.05;;;15.35;;
27818;SDS011;15192;44.854;10.046;2023-05-23T03:19:33;23.47;;;17.02;;
27818;SDS011;15192;44.854;10.046;2023-05-23T03:22:02;23.90;;;16.93;;
27818;SDS011;15192;44.854;10.046;2023-05-23T03:24:31;24.30;;;16.85;;
27818;SDS011;15192;44.854;10.046;2023-05-23T03:27:00;21.62;;;15.58;;
27818;SDS011;15192;44.854;10.046;2023-05-23T03:29:29;27.52;;;17.67;;
27818;SDS011;15192;44.854;10.046;2023-05-23T03:31:58;23.90;;;16.17;;
27818;SDS011;15192;44.854;10.046;2023-05-23T03:34:28;22.52;;;16.12;;
27818;SDS011;15192;44.854;10.046;2023-05-23T03:36:58;21.95;;;17.05;;
27818;SDS011;15192;44.854;10.046;2023-05-23T03:39:28;25.10;;;17.23;;
27818;SDS011;15192;44.854;10.046;2023-05-23T03:41:57;26.62;;;16.93;;
27818;SDS011;15192;44.854;10.046;2023-05-23T03:44:26;22.62;;;16.27;;
27818;SDS011;15192;44.854;10.046;2023-05-23T03:46:55;25.52;;;16.52;;
27818;SDS011;15192;44.854;10.046;2023-05-23T03:49:24;21.07;;;14.65;;
27818;SDS011;15192;44.854;10.046;2023-05-23T03:51:53;22.07;;;16.15;;
27818;SDS011;15192;44.854;10.046;2023-05-23T03:54:22;24.00;;;15.38;;
27818;SDS011;15192;44.854;10.046;2023-05-23T03:56:51;22.40;;;15.58;;
27818;SDS011;15192;44.854;10.046;2023-05-23T03:59:20;27.80;;;16.23;;
27818;SDS011;15192;44.854;10.046;2023-05-23T04:01:49;24.10;;;16.27;;
27818;SDS011;15192;44.854;10.046;2023-05-23T04:04:19;22.25;;;16.48;;
27818;SDS011;15192;44.854;10.046;2023-05-23T04:06:49;25.00;;;16.62;;
27818;SDS011;15192;44.854;10.046;2023-05-23T04:09:18;25.10;;;16.97;;
27818;SDS011;15192;44.854;10.046;2023-05-23T04:11:50;20.43;;;16.50;;
27818;SDS011;15192;44.854;10.046;2023-05-23T04:14:19;21.45;;;14.53;;
27818;SDS011;15192;44.854;10.046;2023-05-23T04:16:50;23.05;;;16.90;;
27818;SDS011;15192;44.854;10.046;2023-05-23T04:19:20;20.37;;;15.32;;
27818;SDS011;15192;44.854;10.046;2023-05-23T04:21:50;22.00;;;15.50;;
27818;SDS011;15192;44.854;10.046;2023-05-23T04:24:19;22.45;;;14.90;;
27818;SDS011;15192;44.854;10.046;2023-05-23T04:26:48;23.57;;;15.23;;
27818;SDS011;15192;44.854;10.046;2023-05-23T04:29:17;24.65;;;14.98;;
27818;SDS011;15192;44.854;10.046;2023-05-23T04:31:46;22.07;;;14.75;;
27818;SDS011;15192;44.854;10.046;2023-05-23T04:34:15;21.40;;;13.98;;
27818;SDS011;15192;44.854;10.046;2023-05-23T04:36:44;22.48;;;14.68;;
27818;SDS011;15192;44.854;10.046;2023-05-23T04:39:14;27.42;;;14.93;;
27818;SDS011;15192;44.854;10.046;2023-05-23T04:41:45;25.95;;;14.38;;
27818;SDS011;15192;44.854;10.046;2023-05-23T04:44:28;22.65;;;13.38;;
27818;SDS011;15192;44.854;10.046;2023-05-23T04:47:15;15.88;;;11.68;;
27818;SDS011;15192;44.854;10.046;2023-05-23T04:49:46;18.98;;;12.73;;
27818;SDS011;15192;44.854;10.046;2023-05-23T04:52:15;22.62;;;11.70;;
27818;SDS011;15192;44.854;10.046;2023-05-23T04:54:45;18.45;;;11.48;;
27818;SDS011;15192;44.854;10.046;2023-05-23T04:57:14;12.70;;;9.88;;
27818;SDS011;15192;44.854;10.046;2023-05-23T04:59:44;11.30;;;10.05;;
27818;SDS011;15192;44.854;10.046;2023-05-23T05:02:13;12.55;;;9.55;;
27818;SDS011;15192;44.854;10.046;2023-05-23T05:04:42;11.03;;;8.50;;
27818;SDS011;15192;44.854;10.046;2023-05-23T05:07:11;12.58;;;8.18;;
27818;SDS011;15192;44.854;10.046;2023-05-23T05:09:40;9.20;;;7.67;;
27818;SDS011;15192;44.854;10.046;2023-05-23T05:12:11;12.95;;;8.25;;
27818;SDS011;15192;44.854;10.046;2023-05-23T05:14:40;10.18;;;8.48;;
27818;SDS011;15192;44.854;10.046;2023-05-23T05:17:10;10.90;;;8.33;;
27818;SDS011;15192;44.854;10.046;2023-05-23T05:19:40;11.78;;;8.40;;
27818;SDS011;15192;44.854;10.046;2023-05-23T05:22:09;13.00;;;8.85;;
27818;SDS011;15192;44.854;10.046;2023-05-23T05:24:38;16.25;;;8.58;;
27818;SDS011;15192;44.854;10.046;2023-05-23T05:27:08;8.33;;;7.30;;
27818;SDS011;15192;44.854;10.046;2023-05-23T05:29:37;13.70;;;9.55;;
27818;SDS011;15192;44.854;10.046;2023-05-23T05:32:06;11.00;;;9.33;;
27818;SDS011;15192;44.854;10.046;2023-05-23T05:34:35;14.68;;;9.03;;
27818;SDS011;15192;44.854;10.046;2023-05-23T05:37:05;12.07;;;9.65;;
27818;SDS011;15192;44.854;10.046;2023-05-23T05:39:34;15.08;;;10.50;;
27818;SDS011;15192;44.854;10.046;2023-05-23T05:42:05;15.93;;;11.18;;
27818;SDS011;15192;44.854;10.046;2023-05-23T05:44:35;20.88;;;11.25;;
27818;SDS011;15192;44.854;10.046;2023-05-23T05:47:03;17.50;;;12.03;;
27818;SDS011;15192;44.854;10.046;2023-05-23T05:49:32;18.75;;;13.53;;
27818;SDS011;15192;44.854;10.046;2023-05-23T05:52:02;19.62;;;13.75;;
27818;SDS011;15192;44.854;10.046;2023-05-23T05:54:30;17.40;;;11.83;;
27818;SDS011;15192;44.854;10.046;2023-05-23T05:57:00;24.27;;;14.65;;
27818;SDS011;15192;44.854;10.046;2023-05-23T05:59:29;22.25;;;14.20;;
27818;SDS011;15192;44.854;10.046;2023-05-23T06:01:59;21.97;;;16.00;;
27818;SDS011;15192;44.854;10.046;2023-05-23T06:04:28;23.18;;;16.05;;
27818;SDS011;15192;44.854;10.046;2023-05-23T06:06:58;24.10;;;15.35;;
27818;SDS011;15192;44.854;10.046;2023-05-23T06:09:27;22.77;;;16.12;;
27818;SDS011;15192;44.854;10.046;2023-05-23T06:11:55;23.77;;;16.12;;
27818;SDS011;15192;44.854;10.046;2023-05-23T06:14:24;28.35;;;16.17;;
27818;SDS011;15192;44.854;10.046;2023-05-23T06:16:53;21.93;;;16.12;;
27818;SDS011;15192;44.854;10.046;2023-05-23T06:19:22;26.27;;;17.52;;
27818;SDS011;15192;44.854;10.046;2023-05-23T06:21:51;23.00;;;15.68;;
27818;SDS011;15192;44.854;10.046;2023-05-23T06:24:21;17.92;;;15.10;;
27818;SDS011;15192;44.854;10.046;2023-05-23T06:26:49;21.45;;;15.93;;
27818;SDS011;15192;44.854;10.046;2023-05-23T06:29:18;21.07;;;15.43;;
27818;SDS011;15192;44.854;10.046;2023-05-23T06:31:47;19.60;;;14.70;;
27818;SDS011;15192;44.854;10.046;2023-05-23T06:34:16;21.57;;;14.78;;
27818;SDS011;15192;44.854;10.046;2023-05-23T06:36:46;19.52;;;13.60;;
27818;SDS011;15192;44.854;10.046;2023-05-23T06:39:15;20.23;;;11.97;;
27818;SDS011;15192;44.854;10.046;2023-05-23T06:41:45;18.90;;;15.28;;
27818;SDS011;15192;44.854;10.046;2023-05-23T06:44:15;19.35;;;13.85;;
27818;SDS011;15192;44.854;10.046;2023-05-23T06:46:47;22.50;;;15.03;;
27818;SDS011;15192;44.854;10.046;2023-05-23T06:49:16;23.98;;;16.73;;
27818;SDS011;15192;44.854;10.046;2023-05-23T06:51:45;25.23;;;16.23;;
27818;SDS011;15192;44.854;10.046;2023-05-23T06:54:14;19.00;;;14.73;;
27818;SDS011;15192;44.854;10.046;2023-05-23T06:56:44;30.72;;;16.77;;
27818;SDS011;15192;44.854;10.046;2023-05-23T06:59:13;16.90;;;13.55;;
27818;SDS011;15192;44.854;10.046;2023-05-23T07:01:42;25.80;;;17.15;;
27818;SDS011;15192;44.854;10.046;2023-05-23T07:04:13;19.57;;;16.20;;
27818;SDS011;15192;44.854;10.046;2023-05-23T07:06:42;23.57;;;17.12;;
27818;SDS011;15192;44.854;10.046;2023-05-23T07:09:12;26.25;;;17.02;;
27818;SDS011;15192;44.854;10.046;2023-05-23T07:11:41;20.77;;;14.30;;
27818;SDS011;15192;44.854;10.046;2023-05-23T07:14:10;23.70;;;14.90;;
27818;SDS011;15192;44.854;10.046;2023-05-23T07:16:41;16.40;;;12.47;;
27818;SDS011;15192;44.854;10.046;2023-05-23T07:19:10;16.57;;;14.25;;
27818;SDS011;15192;44.854;10.046;2023-05-23T07:21:44;19.30;;;14.33;;
27818;SDS011;15192;44.854;10.046;2023-05-23T07:24:15;16.48;;;14.03;;
27818;SDS011;15192;44.854;10.046;2023-05-23T07:26:44;17.60;;;13.43;;
27818;SDS011;15192;44.854;10.046;2023-05-23T07:29:13;16.93;;;13.30;;
27818;SDS011;15192;44.854;10.046;2023-05-23T07:31:44;22.22;;;13.00;;
27818;SDS011;15192;44.854;10.046;2023-05-23T07:34:13;17.70;;;13.05;;
27818;SDS011;15192;44.854;10.046;2023-05-23T07:36:52;18.17;;;12.68;;
27818;SDS011;15192;44.854;10.046;2023-05-23T07:39:23;21.65;;;11.90;;
27818;SDS011;15192;44.854;10.046;2023-05-23T07:41:54;21.55;;;12.53;;
27818;SDS011;15192;44.854;10.046;2023-05-23T07:44:23;21.07;;;11.68;;
27818;SDS011;15192;44.854;10.046;2023-05-23T07:46:53;15.28;;;11.60;;
27818;SDS011;15192;44.854;10.046;2023-05-23T07:49:22;16.80;;;12.03;;
27818;SDS011;15192;44.854;10.046;2023-05-23T07:51:52;20.72;;;12.73;;
27818;SDS011;15192;44.854;10.046;2023-05-23T07:54:21;21.90;;;12.75;;
27818;SDS011;15192;44.854;10.046;2023-05-23T07:56:52;17.40;;;12.10;;
27818;SDS011;15192;44.854;10.046;2023-05-23T07:59:21;19.12;;;11.65;;
27818;SDS011;15192;44.854;10.046;2023-05-23T08:01:50;20.80;;;13.03;;
27818;SDS011;15192;44.854;10.046;2023-05-23T08:04:21;26.15;;;11.97;;
27818;SDS011;15192;44.854;10.046;2023-05-23T08:06:52;23.35;;;15.10;;
27818;SDS011;15192;44.854;10.046;2023-05-23T08:09:22;24.15;;;15.03;;
27818;SDS011;15192;44.854;10.046;2023-05-23T08:11:52;20.45;;;13.83;;
27818;SDS011;15192;44.854;10.046;2023-05-23T08:14:22;18.37;;;13.05;;
27818;SDS011;15192;44.854;10.046;2023-05-23T08:16:56;20.85;;;12.05;;
27818;SDS011;15192;44.854;10.046;2023-05-23T08:19:26;17.20;;;12.05;;
27818;SDS011;15192;44.854;10.046;2023-05-23T08:21:56;20.97;;;13.40;;
27818;SDS011;15192;44.854;10.046;2023-05-23T08:24:25;20.27;;;11.93;;
27818;SDS011;15192;44.854;10.046;2023-05-23T08:26:55;18.47;;;11.63;;
27818;SDS011;15192;44.854;10.046;2023-05-23T08:29:26;17.45;;;12.05;;
27818;SDS011;15192;44.854;10.046;2023-05-23T08:31:55;20.95;;;13.20;;
27818;SDS011;15192;44.854;10.046;2023-05-23T08:34:25;18.73;;;11.55;;
27818;SDS011;15192;44.854;10.046;2023-05-23T08:36:54;18.27;;;11.40;;
27818;SDS011;15192;44.854;10.046;2023-05-23T08:39:24;20.12;;;12.53;;
27818;SDS011;15192;44.854;10.046;2023-05-23T08:42:11;18.12;;;11.38;;
27818;SDS011;15192;44.854;10.046;2023-05-23T08:44:41;16.95;;;11.57;;
27818;SDS011;15192;44.854;10.046;2023-05-23T08:47:10;21.57;;;11.35;;
27818;SDS011;15192;44.854;10.046;2023-05-23T08:49:53;23.20;;;12.82;;
27818;SDS011;15192;44.854;10.046;2023-05-23T08:52:23;19.17;;;11.80;;
27818;SDS011;15192;44.854;10.046;2023-05-23T08:54:55;17.62;;;10.80;;
27818;SDS011;15192;44.854;10.046;2023-05-23T08:57:24;16.70;;;10.95;;
27818;SDS011;15192;44.854;10.046;2023-05-23T09:02:24;15.23;;;10.55;;
27818;SDS011;15192;44.854;10.046;2023-05-23T09:04:55;14.80;;;9.98;;
27818;SDS011;15192;44.854;10.046;2023-05-23T09:07:26;17.40;;;11.55;;
27818;SDS011;15192;44.854;10.046;2023-05-23T09:09:57;18.90;;;11.22;;
27818;SDS011;15192;44.854;10.046;2023-05-23T09:12:26;14.43;;;11.05;;
27818;SDS011;15192;44.854;10.046;2023-05-23T09:14:56;22.80;;;10.05;;
27818;SDS011;15192;44.854;10.046;2023-05-23T09:17:25;14.47;;;8.98;;
27818;SDS011;15192;44.854;10.046;2023-05-23T09:19:54;15.95;;;9.88;;
27818;SDS011;15192;44.854;10.046;2023-05-23T09:22:25;14.23;;;9.70;;
27818;SDS011;15192;44.854;10.046;2023-05-23T09:24:59;16.95;;;10.15;;
27818;SDS011;15192;44.854;10.046;2023-05-23T09:27:29;14.43;;;10.78;;
27818;SDS011;15192;44.854;10.046;2023-05-23T09:29:58;23.05;;;17.70;;
27818;SDS011;15192;44.854;10.046;2023-05-23T09:32:35;34.73;;;21.57;;
27818;SDS011;15192;44.854;10.046;2023-05-23T09:35:05;24.10;;;14.18;;
27818;SDS011;15192;44.854;10.046;2023-05-23T09:37:38;21.17;;;11.85;;
27818;SDS011;15192;44.854;10.046;2023-05-23T09:40:10;16.20;;;10.78;;
27818;SDS011;15192;44.854;10.046;2023-05-23T09:42:44;17.90;;;11.00;;
27818;SDS011;15192;44.854;10.046;2023-05-23T09:45:14;17.35;;;11.05;;
27818;SDS011;15192;44.854;10.046;2023-05-23T09:47:50;18.75;;;11.22;;
27818;SDS011;15192;44.854;10.046;2023-05-23T09:50:19;16.30;;;11.53;;
27818;SDS011;15192;44.854;10.046;2023-05-23T09:52:49;14.75;;;10.85;;
27818;SDS011;15192;44.854;10.046;2023-05-23T09:55:19;13.30;;;10.10;;
27818;SDS011;15192;44.854;10.046;2023-05-23T09:57:49;15.35;;;9.65;;
27818;SDS011;15192;44.854;10.046;2023-05-23T10:00:22;16.48;;;10.10;;
27818;SDS011;15192;44.854;10.046;2023-05-23T10:05:48;15.18;;;9.03;;
27818;SDS011;15192;44.854;10.046;2023-05-23T10:08:20;11.22;;;8.68;;
27818;SDS011;15192;44.854;10.046;2023-05-23T10:13:43;10.72;;;7.70;;
27818;SDS011;15192;44.854;10.046;2023-05-23T10:18:48;12.50;;;7.62;;
27818;SDS011;15192;44.854;10.046;2023-05-23T10:21:23;10.38;;;7.72;;
27818;SDS011;15192;44.854;10.046;2023-05-23T10:23:54;9.85;;;7.22;;
27818;SDS011;15192;44.854;10.046;2023-05-23T10:26:26;13.03;;;7.85;;
27818;SDS011;15192;44.854;10.046;2023-05-23T10:28:55;10.35;;;7.95;;
27818;SDS011;15192;44.854;10.046;2023-05-23T10:31:25;9.85;;;7.70;;
27818;SDS011;15192;44.854;10.046;2023-05-23T10:33:56;11.48;;;8.40;;
27818;SDS011;15192;44.854;10.046;2023-05-23T10:36:47;9.68;;;7.75;;
27818;SDS011;15192;44.854;10.046;2023-05-23T10:39:30;12.47;;;8.28;;
27818;SDS011;15192;44.854;10.046;2023-05-23T10:42:22;16.52;;;8.50;;
27818;SDS011;15192;44.854;10.046;2023-05-23T10:45:15;10.40;;;7.33;;
27818;SDS011;15192;44.854;10.046;2023-05-23T10:47:48;10.25;;;6.90;;
27818;SDS011;15192;44.854;10.046;2023-05-23T10:50:41;15.15;;;7.75;;
27818;SDS011;15192;44.854;10.046;2023-05-23T10:53:03;11.83;;;8.00;;
27818;SDS011;15192;44.854;10.046;2023-05-23T10:55:33;12.20;;;8.13;;
27818;SDS011;15192;44.854;10.046;2023-05-23T10:58:10;10.45;;;7.62;;
27818;SDS011;15192;44.854;10.046;2023-05-23T11:00:52;13.03;;;7.80;;
27818;SDS011;15192;44.854;10.046;2023-05-23T11:03:33;10.60;;;7.80;;
27818;SDS011;15192;44.854;10.046;2023-05-23T11:06:04;14.93;;;8.13;;
27818;SDS011;15192;44.854;10.046;2023-05-23T11:08:36;11.08;;;7.05;;
27818;SDS011;15192;44.854;10.046;2023-05-23T11:11:09;13.68;;;8.05;;
27818;SDS011;15192;44.854;10.046;2023-05-23T11:16:27;11.28;;;7.83;;
27818;SDS011;15192;44.854;10.046;2023-05-23T11:21:54;11.13;;;8.30;;
27818;SDS011;15192;44.854;10.046;2023-05-23T11:24:46;10.23;;;8.35;;
27818;SDS011;15192;44.854;10.046;2023-05-23T11:27:27;11.40;;;8.35;;
27818;SDS011;15192;44.854;10.046;2023-05-23T11:30:05;9.83;;;7.53;;
27818;SDS011;15192;44.854;10.046;2023-05-23T11:32:35;10.25;;;7.35;;
27818;SDS011;15192;44.854;10.046;2023-05-23T11:35:05;10.80;;;8.15;;
27818;SDS011;15192;44.854;10.046;2023-05-23T11:37:36;12.78;;;7.55;;
27818;SDS011;15192;44.854;10.046;2023-05-23T11:42:54;24.80;;;7.95;;
27818;SDS011;15192;44.854;10.046;2023-05-23T11:45:23;17.30;;;7.42;;
27818;SDS011;15192;44.854;10.046;2023-05-23T11:47:53;8.98;;;6.85;;
27818;SDS011;15192;44.854;10.046;2023-05-23T11:50:22;10.88;;;7.65;;
27818;SDS011;15192;44.854;10.046;2023-05-23T11:52:53;11.60;;;7.47;;
27818;SDS011;15192;44.854;10.046;2023-05-23T11:55:22;9.23;;;6.65;;
27818;SDS011;15192;44.854;10.046;2023-05-23T11:57:51;9.65;;;6.70;;
27818;SDS011;15192;44.854;10.046;2023-05-23T12:00:23;7.97;;;6.62;;
27818;SDS011;15192;44.854;10.046;2023-05-23T12:02:52;9.40;;;6.83;;
27818;SDS011;15192;44.854;10.046;2023-05-23T12:05:21;11.55;;;6.97;;
27818;SDS011;15192;44.854;10.046;2023-05-23T12:07:50;10.13;;;6.83;;
27818;SDS011;15192;44.854;10.046;2023-05-23T12:10:18;12.33;;;7.28;;
27818;SDS011;15192;44.854;10.046;2023-05-23T12:12:49;10.10;;;6.10;;
27818;SDS011;15192;44.854;10.046;2023-05-23T12:15:21;9.47;;;6.40;;
27818;SDS011;15192;44.854;10.046;2023-05-23T12:17:54;12.78;;;6.62;;
27818;SDS011;15192;44.854;10.046;2023-05-23T12:20:24;9.30;;;6.10;;
27818;SDS011;15192;44.854;10.046;2023-05-23T12:22:55;9.15;;;6.12;;
27818;SDS011;15192;44.854;10.046;2023-05-23T12:25:24;20.17;;;8.25;;
27818;SDS011;15192;44.854;10.046;2023-05-23T12:27:53;11.25;;;5.72;;
27818;SDS011;15192;44.854;10.046;2023-05-23T12:30:22;7.92;;;6.33;;
27818;SDS011;15192;44.854;10.046;2023-05-23T12:32:51;10.72;;;5.85;;
27818;SDS011;15192;44.854;10.046;2023-05-23T12:35:19;7.50;;;6.08;;
27818;SDS011;15192;44.854;10.046;2023-05-23T12:37:50;9.05;;;6.03;;
27818;SDS011;15192;44.854;10.046;2023-05-23T12:40:20;7.25;;;5.92;;
27818;SDS011;15192;44.854;10.046;2023-05-23T12:42:55;9.28;;;6.92;;
27818;SDS011;15192;44.854;10.046;2023-05-23T12:45:31;9.83;;;6.72;;
27818;SDS011;15192;44.854;10.046;2023-05-23T12:48:02;9.63;;;6.30;;
27818;SDS011;15192;44.854;10.046;2023-05-23T12:50:32;11.90;;;7.03;;
27818;SDS011;15192;44.854;10.046;2023-05-23T12:53:01;10.20;;;6.00;;
27818;SDS011;15192;44.854;10.046;2023-05-23T12:55:30;8.15;;;6.22;;
27818;SDS011;15192;44.854;10.046;2023-05-23T12:57:59;7.40;;;6.20;;
27818;SDS011;15192;44.854;10.046;2023-05-23T13:00:28;9.00;;;6.58;;
27818;SDS011;15192;44.854;10.046;2023-05-23T13:02:56;10.08;;;7.62;;
27818;SDS011;15192;44.854;10.046;2023-05-23T13:05:25;11.97;;;7.30;;
27818;SDS011;15192;44.854;10.046;2023-05-23T13:07:54;10.58;;;7.12;;
27818;SDS011;15192;44.854;10.046;2023-05-23T13:10:24;10.72;;;7.17;;
27818;SDS011;15192;44.854;10.046;2023-05-23T13:12:53;11.15;;;7.85;;
27818;SDS011;15192;44.854;10.046;2023-05-23T13:15:22;12.88;;;7.10;;
27818;SDS011;15192;44.854;10.046;2023-05-23T13:17:51;10.55;;;7.00;;
27818;SDS011;15192;44.854;10.046;2023-05-23T13:20:20;19.85;;;8.08;;
27818;SDS011;15192;44.854;10.046;2023-05-23T13:22:49;10.78;;;7.42;;
27818;SDS011;15192;44.854;10.046;2023-05-23T13:25:18;10.78;;;7.28;;
27818;SDS011;15192;44.854;10.046;2023-05-23T13:27:47;10.72;;;7.70;;
27818;SDS011;15192;44.854;10.046;2023-05-23T13:30:16;9.80;;;6.95;;
27818;SDS011;15192;44.854;10.046;2023-05-23T13:32:45;14.93;;;7.75;;
27818;SDS011;15192;44.854;10.046;2023-05-23T13:35:14;9.08;;;6.75;;
27818;SDS011;15192;44.854;10.046;2023-05-23T13:37:43;10.53;;;7.12;;
27818;SDS011;15192;44.854;10.046;2023-05-23T13:40:14;14.87;;;7.20;;
27818;SDS011;15192;44.854;10.046;2023-05-23T13:42:48;7.85;;;6.87;;
27818;SDS011;15192;44.854;10.046;2023-05-23T13:45:18;10.28;;;6.72;;
27818;SDS011;15192;44.854;10.046;2023-05-23T13:47:49;9.65;;;6.30;;
27818;SDS011;15192;44.854;10.046;2023-05-23T13:50:18;11.03;;;6.65;;
27818;SDS011;15192;44.854;10.046;2023-05-23T13:52:47;11.80;;;6.47;;
27818;SDS011;15192;44.854;10.046;2023-05-23T13:55:15;9.18;;;6.25;;
27818;SDS011;15192;44.854;10.046;2023-05-23T13:57:44;9.30;;;6.75;;
27818;SDS011;15192;44.854;10.046;2023-05-23T14:00:14;10.32;;;6.87;;
27818;SDS011;15192;44.854;10.046;2023-05-23T14:02:43;11.70;;;7.25;;
27818;SDS011;15192;44.854;10.046;2023-05-23T14:05:12;9.40;;;6.60;;
27818;SDS011;15192;44.854;10.046;2023-05-23T14:07:41;7.83;;;6.45;;
27818;SDS011;15192;44.854;10.046;2023-05-23T14:10:12;8.30;;;6.97;;
27818;SDS011;15192;44.854;10.046;2023-05-23T14:12:43;8.85;;;7.22;;
27818;SDS011;15192;44.854;10.046;2023-05-23T14:15:12;10.10;;;7.03;;
27818;SDS011;15192;44.854;10.046;2023-05-23T14:17:41;13.62;;;6.40;;
27818;SDS011;15192;44.854;10.046;2023-05-23T14:20:10;9.55;;;6.55;;
27818;SDS011;15192;44.854;10.046;2023-05-23T14:22:39;10.45;;;6.28;;
27818;SDS011;15192;44.854;10.046;2023-05-23T14:25:08;13.58;;;7.40;;
27818;SDS011;15192;44.854;10.046;2023-05-23T14:27:37;9.83;;;6.33;;
27818;SDS011;15192;44.854;10.046;2023-05-23T14:30:06;9.38;;;7.08;;
27818;SDS011;15192;44.854;10.046;2023-05-23T14:32:36;10.25;;;7.17;;
27818;SDS011;15192;44.854;10.046;2023-05-23T14:35:05;10.43;;;7.10;;
27818;SDS011;15192;44.854;10.046;2023-05-23T14:37:36;11.18;;;6.92;;
27818;SDS011;15192;44.854;10.046;2023-05-23T14:40:06;8.45;;;6.58;;
27818;SDS011;15192;44.854;10.046;2023-05-23T14:42:36;12.20;;;8.08;;
27818;SDS011;15192;44.854;10.046;2023-05-23T14:45:05;10.23;;;7.83;;
27818;SDS011;15192;44.854;10.046;2023-05-23T14:47:34;12.00;;;6.87;;
27818;SDS011;15192;44.854;10.046;2023-05-23T14:50:03;9.68;;;6.62;;
27818;SDS011;15192;44.854;10.046;2023-05-23T14:52:32;10.32;;;6.70;;
27818;SDS011;15192;44.854;10.046;2023-05-23T14:55:01;8.60;;;6.55;;
27818;SDS011;15192;44.854;10.046;2023-05-23T14:57:30;9.70;;;6.62;;
27818;SDS011;15192;44.854;10.046;2023-05-23T14:59:59;8.38;;;6.75;;
27818;SDS011;15192;44.854;10.046;2023-05-23T15:02:30;10.88;;;6.28;;